createdAt,value
2022-09-27T05:28:59.640Z,32.00
2022-09-27T05:29:59.574Z,32.00
2022-09-27T05:30:59.589Z,32.00
2022-09-27T05:31:59.491Z,36.00
2022-09-27T05:32:59.427Z,40.00
2022-09-27T05:33:59.382Z,44.00
2022-09-27T05:34:59.332Z,48.00
2022-09-27T05:35:59.284Z,52.00
2022-09-27T05:36:59.238Z,56.00
2022-09-27T05:37:59.192Z,52.00
2022-09-27T05:38:59.138Z,68.00
2022-09-27T05:39:59.093Z,68.00
2022-09-27T05:40:59.107Z,72.00
2022-09-27T05:41:58.998Z,72.00
2022-09-27T05:42:58.951Z,88.00
2022-09-27T05:43:58.900Z,96.00
2022-09-27T05:44:58.868Z,96.00
2022-09-27T05:45:58.907Z,108.00
2022-09-27T05:46:58.753Z,112.00
2022-09-27T05:47:58.707Z,136.00
2022-09-27T05:48:58.660Z,132.00
2022-09-27T05:49:58.611Z,140.00
2022-09-27T05:50:58.561Z,148.00
2022-09-27T05:51:58.515Z,152.00
2022-09-27T05:52:58.466Z,164.00
2022-09-27T05:53:58.420Z,168.00
2022-09-27T05:54:58.370Z,180.00
2022-09-27T05:55:58.325Z,188.00
2022-09-27T05:56:58.278Z,192.00
2022-09-27T05:57:58.227Z,200.00
2022-09-27T05:58:58.178Z,208.00
2022-09-27T05:59:58.141Z,212.00
2022-09-27T06:00:58.103Z,224.00
2022-09-27T06:01:58.165Z,224.00
2022-09-27T06:02:58.057Z,220.00
2022-09-27T06:03:57.941Z,208.00
2022-09-27T06:04:57.892Z,200.00
2022-09-27T06:05:57.849Z,208.00
2022-09-27T06:06:57.795Z,204.00
2022-09-27T06:07:57.749Z,196.00
2022-09-27T06:08:57.702Z,200.00
2022-09-27T06:09:57.652Z,208.00
2022-09-27T06:10:57.602Z,228.00
2022-09-27T06:11:57.556Z,236.00
2022-09-27T06:12:57.512Z,264.00
2022-09-27T06:13:57.464Z,280.00
2022-09-27T06:14:57.414Z,304.00
2022-09-27T06:15:57.382Z,316.00
2022-09-27T06:16:57.376Z,320.00
2022-09-27T06:17:57.269Z,312.00
2022-09-27T06:18:57.219Z,304.00
2022-09-27T06:19:57.184Z,284.00
2022-09-27T06:20:57.134Z,280.00
2022-09-27T06:21:57.079Z,276.00
2022-09-27T06:22:57.028Z,268.00
2022-09-27T06:23:56.995Z,272.00
2022-09-27T06:24:56.939Z,268.00
2022-09-27T06:25:56.887Z,252.00
2022-09-27T06:26:56.838Z,244.00
2022-09-27T06:27:56.789Z,228.00
2022-09-27T06:28:56.743Z,216.00
2022-09-27T06:29:56.693Z,208.00
2022-09-27T06:30:56.723Z,168.00
2022-09-27T06:31:56.597Z,144.00
2022-09-27T06:32:56.567Z,136.00
2022-09-27T06:33:56.508Z,140.00
2022-09-27T06:34:56.460Z,160.00
2022-09-27T06:35:56.406Z,156.00
2022-09-27T06:36:56.356Z,172.00
2022-09-27T06:37:56.310Z,192.00
2022-09-27T06:38:56.259Z,204.00
2022-09-27T06:39:56.215Z,220.00
2022-09-27T06:40:56.212Z,264.00
2022-09-27T06:41:56.123Z,328.00
2022-09-27T06:42:56.069Z,384.00
2022-09-27T06:43:56.026Z,424.00
2022-09-27T06:44:55.975Z,444.00
2022-09-27T06:45:55.965Z,460.00
2022-09-27T06:46:55.882Z,472.00
2022-09-27T06:47:55.832Z,476.00
2022-09-27T06:48:55.803Z,488.00
2022-09-27T06:49:55.737Z,492.00
2022-09-27T06:50:55.687Z,488.00
2022-09-27T06:51:55.639Z,516.00
2022-09-27T06:52:55.591Z,544.00
2022-09-27T06:53:55.542Z,548.00
2022-09-27T06:54:55.494Z,528.00
2022-09-27T06:55:55.448Z,496.00
2022-09-27T06:56:58.925Z,572.00
2022-09-27T06:57:55.352Z,580.00
2022-09-27T06:58:55.307Z,596.00
2022-09-27T06:59:55.260Z,596.00
2022-09-27T07:00:55.246Z,644.00
2022-09-27T07:01:55.178Z,680.00
2022-09-27T07:02:55.113Z,672.00
2022-09-27T07:03:55.070Z,676.00
2022-09-27T07:04:55.037Z,700.00
2022-09-27T07:05:54.970Z,728.00
2022-09-27T07:06:54.921Z,760.00
2022-09-27T07:07:54.875Z,736.00
2022-09-27T07:08:54.829Z,740.00
2022-09-27T07:09:54.778Z,776.00
2022-09-27T07:10:54.734Z,748.00
2022-09-27T07:11:54.683Z,744.00
2022-09-27T07:12:54.640Z,756.00
2022-09-27T07:13:54.586Z,780.00
2022-09-27T07:14:54.538Z,768.00
2022-09-27T07:15:54.492Z,744.00
2022-09-27T07:16:54.511Z,768.00
2022-09-27T07:17:54.397Z,824.00
2022-09-27T07:18:54.347Z,844.00
2022-09-27T07:19:55.307Z,876.00
2022-09-27T07:20:59.346Z,924.00
2022-09-27T07:21:54.204Z,960.00
2022-09-27T07:22:54.154Z,952.00
2022-09-27T07:23:54.108Z,988.00
2022-09-27T07:24:54.264Z,1000.00
2022-09-27T07:25:54.015Z,1008.00
2022-09-27T07:26:53.962Z,1040.00
2022-09-27T07:27:53.919Z,1096.00
2022-09-27T07:28:53.868Z,1128.00
2022-09-27T07:29:53.821Z,1124.00
2022-09-27T07:30:53.804Z,1120.00
2022-09-27T07:31:53.726Z,1124.00
2022-09-27T07:32:53.681Z,1164.00
2022-09-27T07:33:53.633Z,1196.00
2022-09-27T07:34:53.582Z,1264.00
2022-09-27T07:35:53.537Z,1312.00
2022-09-27T07:36:53.505Z,1368.00
2022-09-27T07:37:53.441Z,1376.00
2022-09-27T07:38:53.390Z,1284.00
2022-09-27T07:39:53.345Z,1204.00
2022-09-27T07:40:53.326Z,1116.00
2022-09-27T07:41:53.251Z,1132.00
2022-09-27T07:42:53.200Z,1160.00
2022-09-27T07:43:53.153Z,1240.00
2022-09-27T07:44:53.107Z,1316.00
2022-09-27T07:45:53.121Z,1416.00
2022-09-27T07:46:53.008Z,1528.00
2022-09-27T07:47:52.963Z,1576.00
2022-09-27T07:48:52.913Z,1540.00
2022-09-27T07:49:52.870Z,1476.00
2022-09-27T07:50:52.817Z,1424.00
2022-09-27T07:51:52.774Z,1364.00
2022-09-27T07:52:52.745Z,1364.00
2022-09-27T07:53:52.680Z,1316.00
2022-09-27T07:54:52.629Z,1696.00
2022-09-27T07:55:52.583Z,1224.00
2022-09-27T07:56:52.537Z,1104.00
2022-09-27T07:57:52.486Z,1000.00
2022-09-27T07:58:52.438Z,888.00
2022-09-27T08:00:52.357Z,732.00
2022-09-27T08:01:52.326Z,700.00
2022-09-27T08:02:52.248Z,632.00
2022-09-27T08:03:52.200Z,656.00
2022-09-27T08:04:52.153Z,692.00
2022-09-27T08:05:52.103Z,820.00
2022-09-27T08:06:52.062Z,988.00
2022-09-27T08:07:52.011Z,1156.00
2022-09-27T08:08:51.993Z,1316.00
2022-09-27T08:09:51.913Z,1484.00
2022-09-27T08:10:51.869Z,1620.00
2022-09-27T08:11:51.823Z,1668.00
2022-09-27T08:12:51.775Z,1556.00
2022-09-27T08:13:51.725Z,1644.00
2022-09-27T08:14:51.677Z,1664.00
2022-09-27T08:15:51.631Z,1668.00
2022-09-27T08:16:51.644Z,1720.00
2022-09-27T08:17:51.534Z,1780.00
2022-09-27T08:18:51.487Z,1828.00
2022-09-27T08:19:51.441Z,1868.00
2022-09-27T08:20:51.398Z,2012.00
2022-09-27T08:21:54.431Z,1732.00
2022-09-27T08:22:51.300Z,1656.00
2022-09-27T08:23:51.251Z,1672.00
2022-09-27T08:24:51.231Z,1680.00
2022-09-27T08:25:51.153Z,1480.00
2022-09-27T08:26:51.109Z,1580.00
2022-09-27T08:27:51.059Z,1628.00
2022-09-27T08:28:51.014Z,1660.00
2022-09-27T08:29:50.968Z,1516.00
2022-09-27T08:30:50.921Z,1760.00
2022-09-27T08:31:50.926Z,1824.00
2022-09-27T08:32:50.830Z,1804.00
2022-09-27T08:33:50.776Z,1828.00
2022-09-27T08:34:50.731Z,1884.00
2022-09-27T08:35:50.681Z,1780.00
2022-09-27T08:36:50.636Z,1832.00
2022-09-27T08:37:50.585Z,1744.00
2022-09-27T08:38:50.543Z,1624.00
2022-09-27T08:39:50.491Z,1672.00
2022-09-27T08:40:50.511Z,1472.00
2022-09-27T08:41:50.397Z,1504.00
2022-09-27T08:42:50.351Z,1488.00
2022-09-27T08:43:50.309Z,1420.00
2022-09-27T08:44:50.265Z,1356.00
2022-09-27T08:45:50.246Z,1504.00
2022-09-27T08:46:50.491Z,1416.00
2022-09-27T08:47:50.326Z,1296.00
2022-09-27T08:48:50.074Z,1204.00
2022-09-27T08:49:50.018Z,1188.00
2022-09-27T08:50:49.972Z,1212.00
2022-09-27T08:51:49.926Z,1188.00
2022-09-27T08:52:49.903Z,1248.00
2022-09-27T08:53:49.832Z,1204.00
2022-09-27T08:54:49.787Z,1272.00
2022-09-27T08:55:49.735Z,1304.00
2022-09-27T08:56:49.708Z,1276.00
2022-09-27T08:57:49.640Z,1212.00
2022-09-27T08:58:49.594Z,1368.00
2022-09-27T08:59:49.546Z,1280.00
2022-09-27T09:00:49.536Z,1468.00
2022-09-27T09:01:49.467Z,1444.00
2022-09-27T09:02:49.406Z,1324.00
2022-09-27T09:03:49.357Z,1500.00
2022-09-27T09:04:49.310Z,1376.00
2022-09-27T09:05:49.262Z,1276.00
2022-09-27T09:06:49.216Z,1400.00
2022-09-27T09:07:49.167Z,1416.00
2022-09-27T09:08:51.085Z,1228.00
2022-09-27T09:09:49.091Z,1304.00
2022-09-27T09:10:49.026Z,1284.00
2022-09-27T09:11:48.979Z,1108.00
2022-09-27T09:12:48.970Z,1032.00
2022-09-27T09:13:48.882Z,1176.00
2022-09-27T09:14:48.844Z,1112.00
2022-09-27T09:15:48.787Z,1188.00
2022-09-27T09:16:48.773Z,1268.00
2022-09-27T09:17:48.707Z,1388.00
2022-09-27T09:18:48.650Z,1500.00
2022-09-27T09:19:48.598Z,1520.00
2022-09-27T09:20:48.559Z,1400.00
2022-09-27T09:21:48.503Z,1416.00
2022-09-27T09:22:48.457Z,1460.00
2022-09-27T09:23:48.409Z,1380.00
2022-09-27T09:24:48.417Z,1396.00
2022-09-27T09:25:48.314Z,1376.00
2022-09-27T09:26:48.275Z,1344.00
2022-09-27T09:27:48.220Z,1208.00
2022-09-27T09:28:48.195Z,1392.00
2022-09-27T09:29:48.127Z,1476.00
2022-09-27T09:30:48.081Z,1600.00
2022-09-27T09:31:48.143Z,1632.00
2022-09-27T09:32:47.986Z,1572.00
2022-09-27T09:33:47.938Z,1516.00
2022-09-27T09:34:47.890Z,1516.00
2022-09-27T09:35:47.842Z,1608.00
2022-09-27T09:36:47.797Z,1572.00
2022-09-27T09:37:47.749Z,1492.00
2022-09-27T09:38:47.701Z,1436.00
2022-09-27T09:39:47.653Z,1400.00
2022-09-27T09:40:47.669Z,1408.00
2022-09-27T09:41:47.562Z,1392.00
2022-09-27T09:42:47.515Z,1256.00
2022-09-27T09:43:47.465Z,1392.00
2022-09-27T09:44:47.437Z,1572.00
2022-09-27T09:45:47.459Z,1504.00
2022-09-27T09:46:47.324Z,1608.00
2022-09-27T09:47:47.279Z,1748.00
2022-09-27T09:48:47.229Z,1696.00
2022-09-27T09:49:47.183Z,1604.00
2022-09-27T09:50:47.141Z,1500.00
2022-09-27T09:51:47.089Z,1740.00
2022-09-27T09:52:47.039Z,1656.00
2022-09-27T09:53:46.999Z,1612.00
2022-09-27T09:54:46.943Z,1484.00
2022-09-27T09:55:46.899Z,1496.00
2022-09-27T09:56:46.851Z,1576.00
2022-09-27T09:57:46.803Z,1516.00
2022-09-27T09:58:46.756Z,1668.00
2022-09-27T09:59:46.711Z,1716.00
2022-09-27T10:00:46.707Z,1692.00
2022-09-27T10:01:46.682Z,1740.00
2022-09-27T10:02:46.567Z,1768.00
2022-09-27T10:03:46.527Z,1772.00
2022-09-27T10:04:46.472Z,1540.00
2022-09-27T10:05:46.428Z,1604.00
2022-09-27T10:06:46.378Z,1352.00
2022-09-27T10:07:46.333Z,1444.00
2022-09-27T10:08:46.286Z,1448.00
2022-09-27T10:09:46.238Z,1348.00
2022-09-27T10:10:46.191Z,1452.00
2022-09-27T10:11:46.163Z,1492.00
2022-09-27T10:12:46.096Z,1560.00
2022-09-27T10:13:46.049Z,1436.00
2022-09-27T10:14:45.999Z,1664.00
2022-09-27T10:15:45.954Z,2232.00
2022-09-27T10:16:46.113Z,2160.00
2022-09-27T10:17:45.859Z,1948.00
2022-09-27T10:18:49.796Z,1844.00
2022-09-27T10:19:45.766Z,1988.00
2022-09-27T10:20:45.718Z,1856.00
2022-09-27T10:21:45.673Z,2288.00
2022-09-27T10:22:45.620Z,2280.00
2022-09-27T10:23:45.577Z,2552.00
2022-09-27T10:24:45.529Z,2216.00
2022-09-27T10:25:45.484Z,2248.00
2022-09-27T10:26:45.432Z,2168.00
2022-09-27T10:27:45.386Z,2460.00
2022-09-27T10:28:45.338Z,2416.00
2022-09-27T10:29:45.292Z,2480.00
2022-09-27T10:30:45.245Z,2732.00
2022-09-27T10:31:45.292Z,2700.00
2022-09-27T10:32:45.170Z,2912.00
2022-09-27T10:33:45.106Z,2552.00
2022-09-27T10:34:45.056Z,2944.00
2022-09-27T10:35:45.011Z,3188.00
2022-09-27T10:36:44.962Z,3676.00
2022-09-27T10:37:44.916Z,3700.00
2022-09-27T10:38:44.868Z,3360.00
2022-09-27T10:39:44.919Z,3140.00
2022-09-27T10:40:44.816Z,2864.00
2022-09-27T10:41:44.730Z,2916.00
2022-09-27T10:42:44.679Z,3156.00
2022-09-27T10:43:44.635Z,2456.00
2022-09-27T10:44:44.586Z,2456.00
2022-09-27T10:45:44.591Z,2952.00
2022-09-27T10:46:44.492Z,2800.00
2022-09-27T10:47:44.446Z,2536.00
2022-09-27T10:48:44.418Z,2032.00
2022-09-27T10:49:44.352Z,1296.00
2022-09-27T10:50:51.389Z,1204.00
2022-09-27T10:51:44.259Z,1432.00
2022-09-27T10:52:44.211Z,1728.00
2022-09-27T10:53:44.165Z,1768.00
2022-09-27T10:54:44.130Z,1396.00
2022-09-27T10:55:44.075Z,1252.00
2022-09-27T10:56:44.033Z,2072.00
2022-09-27T10:57:45.240Z,2652.00
2022-09-27T10:58:43.939Z,2504.00
2022-09-27T10:59:43.886Z,2716.00
2022-09-27T11:00:43.915Z,2872.00
2022-09-27T11:01:43.793Z,2968.00
2022-09-27T11:02:43.748Z,2936.00
2022-09-27T11:03:43.704Z,3008.00
2022-09-27T11:04:43.940Z,2964.00
2022-09-27T11:05:43.617Z,2856.00
2022-09-27T11:06:43.557Z,2700.00
2022-09-27T11:07:43.522Z,2784.00
2022-09-27T11:08:43.463Z,2928.00
2022-09-27T11:09:43.421Z,2520.00
2022-09-27T11:10:43.370Z,2456.00
2022-09-27T11:11:43.332Z,2248.00
2022-09-27T11:12:43.283Z,1608.00
2022-09-27T11:13:43.234Z,1172.00
2022-09-27T11:14:43.187Z,1224.00
2022-09-27T11:15:43.146Z,1604.00
2022-09-27T11:16:43.151Z,2004.00
2022-09-27T11:17:43.044Z,2264.00
2022-09-27T11:18:42.997Z,2644.00
2022-09-27T11:19:42.953Z,2456.00
2022-09-27T11:20:43.044Z,2584.00
2022-09-27T11:21:42.858Z,2716.00
2022-09-27T11:22:42.813Z,2516.00
2022-09-27T11:23:42.765Z,2620.00
2022-09-27T11:24:42.718Z,2780.00
2022-09-27T11:25:42.675Z,3096.00
2022-09-27T11:26:42.625Z,3352.00
2022-09-27T11:27:42.578Z,3932.00
2022-09-27T11:28:42.530Z,4088.00
2022-09-27T11:29:42.560Z,3960.00
2022-09-27T11:30:42.438Z,3932.00
2022-09-27T11:31:42.426Z,3808.00
2022-09-27T11:32:42.344Z,3580.00
2022-09-27T11:33:42.297Z,3636.00
2022-09-27T11:34:42.249Z,3644.00
2022-09-27T11:35:42.207Z,3212.00
2022-09-27T11:36:42.174Z,2456.00
2022-09-27T11:37:42.114Z,2052.00
2022-09-27T11:38:52.880Z,2212.00
2022-09-27T11:39:42.019Z,2508.00
2022-09-27T11:40:42.011Z,3068.00
2022-09-27T11:41:41.927Z,2924.00
2022-09-27T11:42:41.877Z,2940.00
2022-09-27T11:43:41.834Z,3140.00
2022-09-27T11:44:41.784Z,2752.00
2022-09-27T11:46:03.259Z,2488.00
2022-09-27T11:46:42.357Z,2432.00
2022-09-27T11:47:41.777Z,2384.00
2022-09-27T11:48:41.600Z,2240.00
2022-09-27T11:49:41.553Z,2200.00
2022-09-27T11:50:41.509Z,1912.00
2022-09-27T11:51:41.461Z,1720.00
2022-09-27T11:52:41.431Z,1820.00
2022-09-27T11:53:41.366Z,1424.00
2022-09-27T11:54:41.318Z,1012.00
2022-09-27T11:55:41.271Z,808.00
2022-09-27T11:56:41.229Z,756.00
2022-09-27T11:57:41.181Z,1172.00
2022-09-27T11:58:41.135Z,1696.00
2022-09-27T11:59:41.087Z,2132.00
2022-09-27T12:00:41.039Z,2876.00
2022-09-27T12:01:41.032Z,3076.00
2022-09-27T12:02:41.008Z,2876.00
2022-09-27T12:03:40.901Z,2588.00
2022-09-27T12:04:40.858Z,2448.00
2022-09-27T12:05:40.812Z,2248.00
2022-09-27T12:06:40.758Z,1736.00
2022-09-27T12:07:40.716Z,1640.00
2022-09-27T12:08:40.690Z,1928.00
2022-09-27T12:09:40.621Z,2008.00
2022-09-27T12:10:40.575Z,1808.00
2022-09-27T12:11:40.539Z,1376.00
2022-09-27T12:12:40.483Z,1176.00
2022-09-27T12:13:40.437Z,924.00
2022-09-27T12:14:40.393Z,848.00
2022-09-27T12:15:40.466Z,704.00
2022-09-27T12:16:40.297Z,688.00
2022-09-27T12:17:40.249Z,728.00
2022-09-27T12:18:40.215Z,520.00
2022-09-27T12:19:40.155Z,392.00
2022-09-27T12:20:40.114Z,340.00
2022-09-27T12:21:40.062Z,372.00
2022-09-27T12:22:58.142Z,444.00
2022-09-27T12:23:39.967Z,500.00
2022-09-27T12:24:39.981Z,580.00
2022-09-27T12:25:39.878Z,584.00
2022-09-27T12:26:39.828Z,512.00
2022-09-27T12:27:39.782Z,480.00
2022-09-27T12:28:39.733Z,456.00
2022-09-27T12:29:39.690Z,380.00
2022-09-27T12:30:39.661Z,332.00
2022-09-27T12:31:39.660Z,312.00
2022-09-27T12:32:39.547Z,336.00
2022-09-27T12:33:39.501Z,396.00
2022-09-27T12:34:39.452Z,328.00
2022-09-27T12:35:39.407Z,296.00
2022-09-27T12:36:39.357Z,312.00
2022-09-27T12:37:39.311Z,544.00
2022-09-27T12:38:39.262Z,1060.00
2022-09-27T12:39:39.219Z,1300.00
2022-09-27T12:40:39.303Z,1492.00
2022-09-27T12:41:39.123Z,1684.00
2022-09-27T12:42:39.079Z,1756.00
2022-09-27T12:43:39.033Z,1696.00
2022-09-27T12:44:38.983Z,1652.00
2022-09-27T12:45:38.935Z,1668.00
2022-09-27T12:46:38.966Z,1704.00
2022-09-27T12:47:38.844Z,2132.00
2022-09-27T12:48:38.796Z,2404.00
2022-09-27T12:49:38.747Z,2356.00
2022-09-27T12:50:38.699Z,2152.00
2022-09-27T12:51:38.655Z,2016.00
2022-09-27T12:52:38.607Z,2224.00
2022-09-27T12:53:38.560Z,2744.00
2022-09-27T12:54:38.515Z,2900.00
2022-09-27T12:55:38.466Z,3092.00
2022-09-27T12:56:38.434Z,3208.00
2022-09-27T12:57:38.371Z,3140.00
2022-09-27T12:58:38.322Z,3100.00
2022-09-27T12:59:38.278Z,3140.00
2022-09-27T13:00:38.338Z,3520.00
2022-09-27T13:01:38.345Z,3536.00
2022-09-27T13:02:41.511Z,3384.00
2022-09-27T13:03:38.089Z,2860.00
2022-09-27T13:04:38.039Z,2780.00
2022-09-27T13:05:37.997Z,2420.00
2022-09-27T13:06:37.947Z,2832.00
2022-09-27T13:07:37.903Z,2776.00
2022-09-27T13:08:37.853Z,2556.00
2022-09-27T13:09:37.806Z,2420.00
2022-09-27T13:10:37.759Z,2184.00
2022-09-27T13:11:37.715Z,2028.00
2022-09-27T13:12:37.704Z,1832.00
2022-09-27T13:13:37.623Z,1956.00
2022-09-27T13:14:37.570Z,1816.00
2022-09-27T13:15:37.561Z,2132.00
2022-09-27T13:16:37.484Z,2884.00
2022-09-27T13:17:37.434Z,2896.00
2022-09-27T13:18:37.389Z,2840.00
2022-09-27T13:19:37.340Z,2632.00
2022-09-27T13:20:37.292Z,2004.00
2022-09-27T13:21:37.249Z,1492.00
2022-09-27T13:22:37.198Z,1252.00
2022-09-27T13:23:37.162Z,1148.00
2022-09-27T13:24:37.105Z,1224.00
2022-09-27T13:25:37.068Z,1216.00
2022-09-27T13:26:37.011Z,1572.00
2022-09-27T13:27:36.965Z,1932.00
2022-09-27T13:28:36.938Z,1724.00
2022-09-27T13:29:36.874Z,1384.00
2022-09-27T13:30:36.822Z,1600.00
2022-09-27T13:31:36.811Z,2196.00
2022-09-27T13:32:36.732Z,2648.00
2022-09-27T13:33:36.684Z,2836.00
2022-09-27T13:34:36.636Z,3068.00
2022-09-27T13:35:36.594Z,3012.00
2022-09-27T13:36:36.542Z,3000.00
2022-09-27T13:37:36.498Z,2876.00
2022-09-27T13:38:36.457Z,2832.00
2022-09-27T13:39:36.406Z,2892.00
2022-09-27T13:40:36.432Z,2976.00
2022-09-27T13:41:36.309Z,3092.00
2022-09-27T13:42:36.263Z,3012.00
2022-09-27T13:43:36.219Z,2812.00
2022-09-27T13:44:36.292Z,2576.00
2022-09-27T13:45:36.123Z,2628.00
2022-09-27T13:46:36.110Z,2960.00
2022-09-27T13:47:36.037Z,3116.00
2022-09-27T13:48:35.985Z,3308.00
2022-09-27T13:49:35.944Z,3516.00
2022-09-27T13:50:35.888Z,3460.00
2022-09-27T13:51:35.842Z,3292.00
2022-09-27T13:52:35.794Z,3104.00
2022-09-27T13:53:35.750Z,2860.00
2022-09-27T13:54:35.703Z,2600.00
2022-09-27T13:55:35.659Z,2192.00
2022-09-27T13:56:35.612Z,1900.00
2022-09-27T13:57:35.562Z,1768.00
2022-09-27T13:58:35.517Z,2024.00
2022-09-27T13:59:35.473Z,2208.00
2022-09-27T14:00:35.520Z,1736.00
2022-09-27T14:01:35.449Z,1748.00
2022-09-27T14:02:35.332Z,2076.00
2022-09-27T14:03:35.283Z,2636.00
2022-09-27T14:04:35.239Z,3400.00
2022-09-27T14:05:35.188Z,3432.00
2022-09-27T14:06:35.145Z,3324.00
2022-09-27T14:07:35.098Z,3092.00
2022-09-27T14:08:35.066Z,2948.00
2022-09-27T14:09:35.002Z,3208.00
2022-09-27T14:10:34.957Z,3088.00
2022-09-27T14:11:34.910Z,2816.00
2022-09-27T14:12:34.865Z,2612.00
2022-09-27T14:13:34.818Z,2380.00
2022-09-27T14:14:34.772Z,1780.00
2022-09-27T14:15:34.723Z,1232.00
2022-09-27T14:16:34.830Z,1004.00
2022-09-27T14:17:34.630Z,892.00
2022-09-27T14:18:34.585Z,984.00
2022-09-27T14:19:34.539Z,1268.00
2022-09-27T14:20:34.495Z,1224.00
2022-09-27T14:21:34.445Z,924.00
2022-09-27T14:22:34.398Z,872.00
2022-09-27T14:23:34.350Z,1088.00
2022-09-27T14:24:34.308Z,1364.00
2022-09-27T14:25:34.257Z,1188.00
2022-09-27T14:26:34.213Z,1064.00
2022-09-27T14:27:34.167Z,808.00
2022-09-27T14:28:34.125Z,628.00
2022-09-27T14:29:34.077Z,512.00
2022-09-27T14:30:34.027Z,504.00
2022-09-27T14:31:34.061Z,644.00
2022-09-27T14:32:33.980Z,792.00
2022-09-27T14:33:33.885Z,1032.00
2022-09-27T14:34:33.842Z,1504.00
2022-09-27T14:35:33.796Z,1908.00
2022-09-27T14:36:33.752Z,1572.00
2022-09-27T14:37:33.698Z,1288.00
2022-09-27T14:38:38.175Z,1160.00
2022-09-27T14:39:33.613Z,1076.00
2022-09-27T14:40:33.616Z,1088.00
2022-09-27T14:41:33.512Z,1180.00
2022-09-27T14:42:33.469Z,940.00
2022-09-27T14:43:33.421Z,888.00
2022-09-27T14:44:33.375Z,792.00
2022-09-27T14:45:33.327Z,724.00
2022-09-27T14:46:33.297Z,700.00
2022-09-27T14:47:33.246Z,804.00
2022-09-27T14:48:33.215Z,936.00
2022-09-27T14:49:33.141Z,776.00
2022-09-27T14:50:33.098Z,948.00
2022-09-27T14:51:33.053Z,1228.00
2022-09-27T14:52:33.032Z,1020.00
2022-09-27T14:53:32.950Z,1084.00
2022-09-27T14:54:32.907Z,1296.00
2022-09-27T14:55:32.860Z,1492.00
2022-09-27T14:56:32.816Z,1480.00
2022-09-27T14:57:32.779Z,1600.00
2022-09-27T14:58:46.480Z,1728.00
2022-09-27T14:59:32.677Z,1788.00
2022-09-27T15:00:32.633Z,2092.00
2022-09-27T15:02:32.530Z,2488.00
2022-09-27T15:03:38.378Z,2592.00
2022-09-27T15:04:32.668Z,2688.00
2022-09-27T15:05:32.410Z,2752.00
2022-09-27T15:06:32.347Z,2756.00
2022-09-27T15:07:32.300Z,2812.00
2022-09-27T15:08:32.253Z,2888.00
2022-09-27T15:09:33.327Z,2956.00
2022-09-27T15:10:32.159Z,2996.00
2022-09-27T15:11:32.114Z,3052.00
2022-09-27T15:12:32.066Z,3136.00
2022-09-27T15:13:32.025Z,3268.00
2022-09-27T15:14:32.012Z,3516.00
2022-09-27T15:15:31.932Z,3736.00
2022-09-27T15:16:31.980Z,3576.00
2022-09-27T15:17:31.834Z,3676.00
2022-09-27T15:18:31.789Z,3712.00
2022-09-27T15:19:31.740Z,3684.00
2022-09-27T15:20:34.913Z,3744.00
2022-09-27T15:21:31.644Z,3588.00
2022-09-27T15:22:31.598Z,3460.00
2022-09-27T15:23:31.553Z,3252.00
2022-09-27T15:24:31.506Z,2928.00
2022-09-27T15:25:31.465Z,2584.00
2022-09-27T15:26:31.414Z,2340.00
2022-09-27T15:27:31.368Z,2072.00
2022-09-27T15:28:31.319Z,1936.00
2022-09-27T15:29:31.275Z,1880.00
2022-09-27T15:30:31.226Z,1812.00
2022-09-27T15:31:31.293Z,1836.00
2022-09-27T15:32:31.134Z,1984.00
2022-09-27T15:33:31.089Z,2276.00
2022-09-27T15:34:31.042Z,2632.00
2022-09-27T15:35:31.002Z,2756.00
2022-09-27T15:36:30.965Z,2676.00
2022-09-27T15:37:30.904Z,2428.00
2022-09-27T15:38:30.857Z,2116.00
2022-09-27T15:39:30.819Z,1856.00
2022-09-27T15:40:30.801Z,1608.00
2022-09-27T15:41:30.795Z,1852.00
2022-09-27T15:42:30.683Z,1872.00
2022-09-27T15:43:30.627Z,2208.00
2022-09-27T15:44:34.000Z,2244.00
2022-09-27T15:45:30.533Z,2312.00
2022-09-27T15:46:30.523Z,2568.00
2022-09-27T15:47:30.444Z,2736.00
2022-09-27T15:48:30.390Z,2696.00
2022-09-27T15:49:30.345Z,2528.00
2022-09-27T15:50:30.299Z,2196.00
2022-09-27T15:51:30.256Z,1956.00
2022-09-27T15:52:30.284Z,2104.00
2022-09-27T15:53:30.164Z,2544.00
2022-09-27T15:54:30.112Z,2504.00
2022-09-27T15:55:30.070Z,2072.00
2022-09-27T15:56:30.225Z,1992.00
2022-09-27T15:57:29.979Z,1984.00
2022-09-27T15:58:29.924Z,1896.00
2022-09-27T15:59:29.881Z,1728.00
2022-09-27T16:00:29.977Z,1488.00
2022-09-27T16:01:29.845Z,1296.00
2022-09-27T16:02:29.814Z,1160.00
2022-09-27T16:03:29.695Z,1064.00
2022-09-27T16:04:29.647Z,984.00
2022-09-27T16:05:29.604Z,904.00
2022-09-27T16:06:29.555Z,824.00
2022-09-27T16:07:29.508Z,760.00
2022-09-27T16:08:29.479Z,700.00
2022-09-27T16:09:29.416Z,648.00
2022-09-27T16:10:29.368Z,600.00
2022-09-27T16:11:29.323Z,564.00
2022-09-27T16:12:29.276Z,528.00
2022-09-27T16:13:32.947Z,492.00
2022-09-27T16:14:29.188Z,464.00
2022-09-27T16:15:29.137Z,436.00
2022-09-27T16:16:29.117Z,420.00
2022-09-27T16:17:29.042Z,396.00
2022-09-27T16:18:30.753Z,380.00
2022-09-27T16:19:28.949Z,364.00
2022-09-27T16:20:28.903Z,360.00
2022-09-27T16:21:28.855Z,364.00
2022-09-27T16:22:28.809Z,368.00
2022-09-27T16:23:28.764Z,372.00
2022-09-27T16:24:28.730Z,372.00
2022-09-27T16:25:28.693Z,384.00
2022-09-27T16:26:28.621Z,396.00
2022-09-27T16:27:28.576Z,408.00
2022-09-27T16:28:28.526Z,416.00
2022-09-27T16:29:28.480Z,424.00
2022-09-27T16:30:28.432Z,416.00
2022-09-27T16:31:28.426Z,408.00
2022-09-27T16:32:28.340Z,392.00
2022-09-27T16:33:28.292Z,368.00
2022-09-27T16:34:28.308Z,352.00
2022-09-27T16:35:28.215Z,344.00
2022-09-27T16:36:28.151Z,336.00
2022-09-27T16:37:28.106Z,324.00
2022-09-27T16:38:28.059Z,304.00
2022-09-27T16:39:28.012Z,288.00
2022-09-27T16:40:28.029Z,272.00
2022-09-27T16:41:27.918Z,252.00
2022-09-27T16:42:27.868Z,228.00
2022-09-27T16:43:27.823Z,204.00
2022-09-27T16:44:27.782Z,184.00
2022-09-27T16:45:27.730Z,164.00
2022-09-27T16:46:27.759Z,144.00
2022-09-27T16:47:27.641Z,132.00
2022-09-27T16:48:27.592Z,124.00
2022-09-27T16:49:27.541Z,120.00
2022-09-27T16:50:27.491Z,112.00
2022-09-27T16:51:27.450Z,104.00
2022-09-27T16:53:27.353Z,88.00
2022-09-27T16:54:27.307Z,84.00
2022-09-27T16:55:27.258Z,76.00
2022-09-27T16:56:27.233Z,72.00
2022-09-27T16:57:27.162Z,68.00
2022-09-27T16:58:27.117Z,68.00
2022-09-27T16:59:27.070Z,64.00
2022-09-27T17:00:27.091Z,64.00
2022-09-27T17:01:26.975Z,64.00
2022-09-27T17:02:26.930Z,60.00
2022-09-27T17:03:26.882Z,56.00
2022-09-27T17:04:26.835Z,52.00
2022-09-27T17:05:26.785Z,48.00
2022-09-27T17:06:26.740Z,44.00
2022-09-27T17:07:26.692Z,36.00
2022-09-27T17:08:26.645Z,36.00
2022-09-27T17:09:26.598Z,28.00
2022-09-27T17:10:26.556Z,24.00
2022-09-27T17:11:26.502Z,20.00
2022-09-27T17:12:26.476Z,20.00
2022-09-27T17:13:26.404Z,16.00
2022-09-27T17:14:26.360Z,16.00
2022-09-27T17:15:26.313Z,16.00
2022-09-27T17:16:26.368Z,20.00
2022-09-27T17:17:26.217Z,16.00
2022-09-27T17:18:26.175Z,20.00
2022-09-27T17:19:26.123Z,20.00
2022-09-27T17:20:26.098Z,20.00
2022-09-27T17:21:26.030Z,16.00
2022-09-27T17:22:25.982Z,16.00
2022-09-27T17:23:25.937Z,16.00
2022-09-27T17:24:25.890Z,12.00
2022-09-27T17:25:25.843Z,16.00
2022-09-27T17:26:25.792Z,12.00
2022-09-27T17:27:26.078Z,12.00
2022-09-27T17:28:25.719Z,12.00
2022-09-27T17:29:25.647Z,8.00
2022-09-27T17:30:25.603Z,8.00
2022-09-27T17:31:25.638Z,4.00
2022-09-27T17:32:25.510Z,4.00
2022-09-27T17:33:25.463Z,4.00
2022-09-27T17:35:25.368Z,4.00
2022-09-27T17:36:25.327Z,0.00
2022-09-27T17:37:25.271Z,0.00
2022-09-27T17:38:25.228Z,4.00
2022-09-27T17:39:25.216Z,4.00
2022-09-27T17:40:25.192Z,0.00
2022-09-27T17:41:25.098Z,0.00
2022-09-27T17:42:25.031Z,0.00
2022-09-27T17:43:24.990Z,0.00
2022-09-27T17:44:24.958Z,0.00
2022-09-27T17:45:24.891Z,0.00
2022-09-27T17:46:24.907Z,0.00
2022-09-27T17:47:24.799Z,0.00
2022-09-27T17:48:24.750Z,0.00